Time;durP1;ratioP1;P1;durP2;ratioP2;P2;SDS_P1;SDS_P2;PMS_P1;PMS_P2;Temp;Humidity;BMP_temperature;BMP_pressure;BME280_temperature;BME280_humidity;BME280_pressure;Samples;Min_cycle;Max_cycle;Signal;HPM_P1;HPM_P2
2022/01/11 00:01:25;;;;;;;36.50;27.20;;;;;;102031.90;;;;106479;1297;65233;-43
2022/01/11 00:03:53;;;;;;;36.60;27.10;;;;;;102031.98;;;;106594;1296;62660;-42
2022/01/11 00:09:18;;;;;;;36.30;27.00;;;;;;102032.80;;;;106554;1296;62649;-42
2022/01/11 00:11:51;;;;;;;37.70;26.20;;;;;;102040.76;;;;106573;1296;62552;-25
2022/01/11 00:14:18;;;;;;;36.30;26.90;;;;;;102046.39;;;;106563;1296;67257;-25
2022/01/11 00:16:45;;;;;;;32.80;25.20;;;;;;102043.55;;;;106559;1296;62595;-43
2022/01/11 00:19:14;;;;;;;33.60;25.80;;;;;;102045.11;;;;106557;1297;62563;-42
2022/01/11 00:21:47;;;;;;;32.80;26.30;;;;;;102042.96;;;;106554;1296;62636;-25
2022/01/11 00:24:27;;;;;;;35.50;26.40;;;;;;102041.78;;;;106572;1296;62606;-25
2022/01/11 00:27:06;;;;;;;32.60;25.40;;;;;;102046.29;;;;106549;1296;67333;-42
2022/01/11 00:29:36;;;;;;;37.00;26.20;;;;;;102047.98;;;;106467;1297;62580;-42
2022/01/11 00:32:09;;;;;;;35.80;27.50;;;;;;102046.96;;;;106572;1296;63087;-44
2022/01/11 00:34:50;;;;;;;34.30;26.00;;;;;;102047.09;;;;106542;1296;62661;-43
2022/01/11 00:37:20;;;;;;;37.20;26.10;;;;;;102050.16;;;;106553;1297;62614;-25
2022/01/11 00:39:52;;;;;;;34.20;25.60;;;;;;102050.42;;;;106578;1297;66996;-25
2022/01/11 00:42:22;;;;;;;33.10;25.60;;;;;;102051.79;;;;106497;1300;62605;-25
2022/01/11 00:44:50;;;;;;;32.80;24.90;;;;;;102053.73;;;;106460;1297;62603;-25
2022/01/11 00:47:18;;;;;;;33.80;25.10;;;;;;102057.66;;;;106542;1296;62792;-27
2022/01/11 00:49:45;;;;;;;32.10;25.00;;;;;;102054.28;;;;106591;1297;62506;-25
2022/01/11 00:52:14;;;;;;;32.50;24.60;;;;;;102051.70;;;;106579;1296;65769;-25
2022/01/11 00:54:42;;;;;;;33.60;24.40;;;;;;102054.10;;;;106466;1297;62641;-25
2022/01/11 00:57:09;;;;;;;32.70;23.70;;;;;;102056.89;;;;106458;1297;62546;-25
2022/01/11 00:59:36;;;;;;;33.10;24.80;;;;;;102057.36;;;;106564;1296;62637;-29
2022/01/11 01:02:04;;;;;;;34.90;25.10;;;;;;102054.28;;;;106381;1297;287989;-25
2022/01/11 01:04:31;;;;;;;32.20;23.60;;;;;;102054.78;;;;106575;1296;65358;-25
2022/01/11 01:06:58;;;;;;;31.10;23.90;;;;;;102058.23;;;;106565;1296;62719;-43
2022/01/11 01:09:32;;;;;;;33.20;24.90;;;;;;102057.67;;;;106566;1297;62622;-43
2022/01/11 01:11:59;;;;;;;32.80;23.90;;;;;;102056.94;;;;106560;1296;62616;-26
2022/01/11 01:14:26;;;;;;;32.30;23.80;;;;;;102058.14;;;;106596;1296;62556;-24
2022/01/11 01:16:53;;;;;;;32.80;24.70;;;;;;102056.75;;;;106570;1297;65879;-43
2022/01/11 01:19:21;;;;;;;31.00;22.60;;;;;;102058.28;;;;106550;1296;62466;-43
2022/01/11 01:21:49;;;;;;;30.70;22.60;;;;;;102055.58;;;;106574;1297;62634;-26
2022/01/11 01:24:17;;;;;;;30.60;23.10;;;;;;102058.63;;;;106491;1298;62665;-25
2022/01/11 01:26:44;;;;;;;31.20;23.30;;;;;;102060.27;;;;106597;1297;62662;-25
2022/01/11 01:29:11;;;;;;;30.60;23.20;;;;;;102062.33;;;;106563;1296;65006;-25
2022/01/11 01:31:38;;;;;;;30.00;22.40;;;;;;102065.73;;;;106541;1296;62714;-26
2022/01/11 01:34:06;;;;;;;30.80;22.50;;;;;;102066.80;;;;106561;1296;62565;-25
2022/01/11 01:36:34;;;;;;;30.90;22.60;;;;;;102071.88;;;;106437;1297;62933;-40
2022/01/11 01:39:01;;;;;;;29.80;23.00;;;;;;102075.46;;;;106492;1297;62578;-43
2022/01/11 01:41:28;;;;;;;29.10;22.00;;;;;;102078.86;;;;106572;1297;66495;-45
2022/01/11 01:43:59;;;;;;;30.00;23.50;;;;;;102079.04;;;;106559;1297;62786;-42
2022/01/11 01:46:27;;;;;;;29.00;22.20;;;;;;102079.92;;;;106583;1295;62925;-44
2022/01/11 01:48:58;;;;;;;29.20;22.00;;;;;;102080.77;;;;106443;1294;62628;-43
2022/01/11 01:51:25;;;;;;;31.40;23.10;;;;;;102083.90;;;;106600;1296;62581;-42
2022/01/11 01:53:53;;;;;;;29.00;21.60;;;;;;102086.08;;;;106452;1297;65954;-43
2022/01/11 01:56:22;;;;;;;29.80;22.70;;;;;;102093.06;;;;106410;1297;62643;-25
2022/01/11 01:58:50;;;;;;;27.60;21.30;;;;;;102096.00;;;;106456;1297;62641;-26
2022/01/11 02:01:18;;;;;;;27.40;21.20;;;;;;102098.33;;;;106569;1296;62680;-43
2022/01/11 02:03:46;;;;;;;31.00;22.80;;;;;;102100.31;;;;106574;1296;62566;-44
2022/01/11 02:06:17;;;;;;;29.30;22.30;;;;;;102100.50;;;;106580;1296;64669;-25
2022/01/11 02:08:47;;;;;;;29.00;21.60;;;;;;102098.70;;;;106447;1297;62576;-25
2022/01/11 02:11:20;;;;;;;27.40;20.80;;;;;;102100.83;;;;106564;1297;62687;-42
2022/01/11 02:13:48;;;;;;;26.90;20.90;;;;;;102101.35;;;;106486;1298;62620;-42
2022/01/11 02:16:16;;;;;;;27.80;20.30;;;;;;102101.11;;;;106515;1297;62570;-25
2022/01/11 02:18:46;;;;;;;29.20;21.80;;;;;;102106.48;;;;106573;1297;66548;-25
2022/01/11 02:21:13;;;;;;;28.20;21.30;;;;;;102103.98;;;;106548;1297;62660;-44
2022/01/11 02:23:41;;;;;;;28.20;20.20;;;;;;102106.29;;;;106549;1297;62664;-42
2022/01/11 02:26:08;;;;;;;29.50;21.10;;;;;;102107.55;;;;106568;1296;62641;-25
2022/01/11 02:28:37;;;;;;;28.70;21.70;;;;;;102108.44;;;;106443;1297;62614;-25
2022/01/11 02:31:08;;;;;;;25.90;20.80;;;;;;102108.91;;;;106506;1297;66537;-43
2022/01/11 02:33:48;;;;;;;30.20;20.50;;;;;;102114.09;;;;106467;1297;62536;-42
2022/01/11 02:36:23;;;;;;;32.10;21.30;;;;;;102119.75;;;;106483;1297;62633;-42
2022/01/11 02:38:53;;;;;;;28.30;20.70;;;;;;102119.83;;;;106565;1297;62681;-42
2022/01/11 02:41:21;;;;;;;28.50;21.20;;;;;;102120.66;;;;106599;1297;63018;-25
2022/01/11 02:43:50;;;;;;;28.80;21.20;;;;;;102122.86;;;;106470;1297;66031;-29
2022/01/11 02:46:19;;;;;;;29.20;21.60;;;;;;102123.82;;;;106559;1296;62782;-42
2022/01/11 02:48:48;;;;;;;27.00;20.60;;;;;;102124.71;;;;106421;1300;62535;-42
2022/01/11 02:51:17;;;;;;;27.70;20.80;;;;;;102128.46;;;;106556;1297;62635;-26
2022/01/11 02:53:48;;;;;;;27.00;20.50;;;;;;102127.58;;;;106589;1296;62543;-25
2022/01/11 02:56:17;;;;;;;27.60;21.10;;;;;;102127.77;;;;106599;1296;66511;-25
2022/01/11 02:58:44;;;;;;;27.90;19.90;;;;;;102130.77;;;;106543;1297;62576;-25
2022/01/11 03:01:12;;;;;;;26.30;20.10;;;;;;102131.27;;;;106460;1297;62589;-25
2022/01/11 03:03:39;;;;;;;27.70;20.70;;;;;;102135.57;;;;106544;1296;62650;-25
2022/01/11 03:06:07;;;;;;;26.80;21.10;;;;;;102135.38;;;;106463;1297;62551;-42
2022/01/11 03:08:39;;;;;;;26.90;20.40;;;;;;102138.04;;;;106581;1296;64927;-42
2022/01/11 03:11:18;;;;;;;25.70;19.70;;;;;;102137.27;;;;106557;1296;62628;-42
2022/01/11 03:13:45;;;;;;;29.90;20.40;;;;;;102139.26;;;;106552;1296;62651;-43
2022/01/11 03:16:16;;;;;;;25.20;19.80;;;;;;102141.05;;;;106558;1297;62535;-26
2022/01/11 03:18:45;;;;;;;27.00;20.60;;;;;;102139.09;;;;106495;1297;62533;-25
2022/01/11 03:21:12;;;;;;;28.20;20.30;;;;;;102146.27;;;;106448;1298;64823;-41
2022/01/11 03:23:39;;;;;;;24.70;19.40;;;;;;102146.07;;;;106493;1299;62684;-41
2022/01/11 03:26:07;;;;;;;26.90;20.70;;;;;;102150.57;;;;106517;1299;62707;-26
2022/01/11 03:28:34;;;;;;;25.40;19.40;;;;;;102154.65;;;;106596;1297;62585;-25
2022/01/11 03:31:02;;;;;;;24.60;19.70;;;;;;102153.32;;;;106580;1297;62512;-25
2022/01/11 03:33:29;;;;;;;25.50;19.40;;;;;;102152.91;;;;106488;1298;65779;-24
2022/01/11 03:35:57;;;;;;;25.70;18.90;;;;;;102157.13;;;;106446;1297;62596;-40
2022/01/11 03:38:24;;;;;;;24.20;18.60;;;;;;102158.49;;;;106453;1296;62627;-45
2022/01/11 03:40:52;;;;;;;25.00;19.50;;;;;;102159.75;;;;106567;1297;62729;-41
2022/01/11 03:43:22;;;;;;;24.80;19.10;;;;;;102158.92;;;;106481;1297;62549;-44
2022/01/11 03:45:50;;;;;;;24.50;19.50;;;;;;102154.84;;;;106551;1297;67343;-41
2022/01/11 03:48:18;;;;;;;27.00;20.00;;;;;;102152.23;;;;106561;1297;62701;-41
2022/01/11 03:50:52;;;;;;;25.20;19.00;;;;;;102155.64;;;;106576;1296;62600;-41
2022/01/11 03:53:24;;;;;;;25.00;19.60;;;;;;102158.83;;;;106558;1297;62543;-41
2022/01/11 03:56:10;;;;;;;24.80;19.40;;;;;;102162.70;;;;106531;1299;62597;-41
2022/01/11 03:58:38;;;;;;;24.20;18.60;;;;;;102165.55;;;;106576;1296;65894;-41
2022/01/11 04:01:05;;;;;;;27.90;20.40;;;;;;102166.91;;;;106457;1297;62790;-24
2022/01/11 04:03:32;;;;;;;24.20;18.70;;;;;;102167.11;;;;106548;1296;62580;-24
2022/01/11 04:05:59;;;;;;;23.70;18.40;;;;;;102170.95;;;;106442;1297;62533;-42
2022/01/11 04:08:27;;;;;;;25.00;19.00;;;;;;102171.34;;;;106577;1297;62931;-41
2022/01/11 04:10:54;;;;;;;23.10;18.50;;;;;;102174.31;;;;106585;1296;67306;-37
2022/01/11 04:13:21;;;;;;;24.50;19.30;;;;;;102174.69;;;;106544;1296;62521;-41
2022/01/11 04:15:51;;;;;;;25.20;19.10;;;;;;102178.39;;;;106566;1296;62671;-41
2022/01/11 04:18:18;;;;;;;24.60;18.50;;;;;;102179.59;;;;106486;1299;62659;-41
2022/01/11 04:20:46;;;;;;;23.50;18.00;;;;;;102180.48;;;;106581;1296;62537;-41
2022/01/11 04:23:13;;;;;;;22.00;17.40;;;;;;102184.36;;;;106504;1297;65913;-41
2022/01/11 04:25:40;;;;;;;25.00;19.00;;;;;;102187.21;;;;106437;1297;62586;-43
2022/01/11 04:28:08;;;;;;;25.00;18.60;;;;;;102189.35;;;;106557;1297;62554;-24
2022/01/11 04:30:35;;;;;;;25.10;18.40;;;;;;102194.66;;;;106527;1297;62637;-25
2022/01/11 04:33:02;;;;;;;23.90;18.40;;;;;;102198.25;;;;106593;1297;62920;-42
2022/01/11 04:35:30;;;;;;;23.10;18.00;;;;;;102200.17;;;;106560;1296;66174;-41
2022/01/11 04:37:58;;;;;;;23.80;18.30;;;;;;102200.51;;;;106554;1297;62690;-24
2022/01/11 04:40:25;;;;;;;23.10;18.50;;;;;;102201.04;;;;106577;1297;62574;-24
2022/01/11 04:42:53;;;;;;;24.00;18.90;;;;;;102200.84;;;;106487;1300;62678;-24
2022/01/11 04:45:20;;;;;;;22.50;17.80;;;;;;102200.02;;;;106577;1296;62494;-25
2022/01/11 04:47:52;;;;;;;25.70;18.90;;;;;;102201.69;;;;106575;1297;64833;-43
2022/01/11 04:50:19;;;;;;;24.30;18.20;;;;;;102200.08;;;;106573;1296;62687;-41
2022/01/11 04:52:46;;;;;;;23.70;18.40;;;;;;102199.37;;;;106508;1298;62490;-24
2022/01/11 04:55:13;;;;;;;23.90;17.90;;;;;;102196.93;;;;106564;1297;62640;-24
2022/01/11 04:57:40;;;;;;;23.60;18.20;;;;;;102203.79;;;;106464;1297;62540;-42
2022/01/11 05:00:09;;;;;;;24.20;17.50;;;;;;102205.08;;;;106508;1298;66230;-41
2022/01/11 05:02:37;;;;;;;23.10;17.30;;;;;;102202.00;;;;106466;1297;62746;-24
2022/01/11 05:05:05;;;;;;;22.10;18.10;;;;;;102202.16;;;;106559;1297;62572;-24
2022/01/11 05:07:32;;;;;;;22.20;17.40;;;;;;102198.05;;;;106423;1297;62651;-43
2022/01/11 05:10:00;;;;;;;25.00;18.10;;;;;;102200.21;;;;106487;1299;62491;-42
2022/01/11 05:12:27;;;;;;;25.60;19.20;;;;;;102200.96;;;;106571;1297;67194;-25
2022/01/11 05:14:54;;;;;;;24.00;17.20;;;;;;102201.04;;;;106574;1297;62632;-24
2022/01/11 05:17:21;;;;;;;24.10;17.80;;;;;;102200.27;;;;106579;1297;62519;-24
2022/01/11 05:19:48;;;;;;;23.00;17.70;;;;;;102193.11;;;;106553;1297;62996;-24
2022/01/11 05:22:16;;;;;;;23.20;17.60;;;;;;102189.20;;;;106575;1297;62568;-24
2022/01/11 05:24:43;;;;;;;23.00;17.70;;;;;;102190.62;;;;106567;1296;66570;-24
2022/01/11 05:27:10;;;;;;;23.30;18.10;;;;;;102189.90;;;;106544;1297;62519;-45
2022/01/11 05:29:37;;;;;;;22.30;17.50;;;;;;102193.02;;;;106557;1297;62564;-42
2022/01/11 05:32:04;;;;;;;23.80;17.30;;;;;;102196.64;;;;106547;1297;62734;-24
2022/01/11 05:34:32;;;;;;;22.70;17.60;;;;;;102196.01;;;;106436;1297;62654;-26
2022/01/11 05:36:59;;;;;;;24.60;18.10;;;;;;102197.30;;;;106572;1297;66586;-41
2022/01/11 05:39:26;;;;;;;24.80;18.10;;;;;;102198.56;;;;106545;1297;62694;-41
2022/01/11 05:41:53;;;;;;;23.30;17.80;;;;;;102208.02;;;;106478;1297;62588;-24
2022/01/11 05:44:22;;;;;;;22.40;16.70;;;;;;102209.52;;;;106570;1297;62634;-24
2022/01/11 05:46:49;;;;;;;23.90;17.90;;;;;;102217.46;;;;106599;1297;62527;-43
2022/01/11 05:49:16;;;;;;;21.10;16.70;;;;;;102220.38;;;;106560;1297;66003;-44
2022/01/11 05:51:43;;;;;;;21.70;17.30;;;;;;102228.18;;;;106549;1297;62671;-41
2022/01/11 05:54:10;;;;;;;22.60;16.70;;;;;;102228.33;;;;106541;1297;62474;-41
2022/01/11 05:56:37;;;;;;;21.40;16.90;;;;;;102228.42;;;;106550;1297;62635;-24
2022/01/11 05:59:05;;;;;;;20.70;16.30;;;;;;102227.82;;;;106566;1297;62558;-24
2022/01/11 06:01:34;;;;;;;22.20;16.40;;;;;;102229.27;;;;106586;1296;66237;-41
2022/01/11 06:04:01;;;;;;;20.20;16.80;;;;;;102226.16;;;;106557;1296;62727;-41
2022/01/11 06:06:28;;;;;;;22.80;17.50;;;;;;102233.16;;;;106528;1297;62574;-42
2022/01/11 06:08:56;;;;;;;21.90;17.00;;;;;;102243.34;;;;106448;1297;62761;-41
2022/01/11 06:11:23;;;;;;;21.20;17.40;;;;;;102250.96;;;;106569;1297;62532;-25
2022/01/11 06:13:51;;;;;;;21.50;16.80;;;;;;102255.81;;;;106577;1297;64832;-24
2022/01/11 06:16:20;;;;;;;21.60;17.00;;;;;;102257.52;;;;106562;1297;62637;-41
2022/01/11 06:18:49;;;;;;;22.20;16.10;;;;;;102256.84;;;;106570;1297;62529;-41
2022/01/11 06:21:16;;;;;;;22.90;16.80;;;;;;102264.31;;;;106475;1300;62582;-33
2022/01/11 06:23:45;;;;;;;20.70;16.70;;;;;;102266.94;;;;106564;1297;62635;-41
2022/01/11 06:26:15;;;;;;;21.90;17.10;;;;;;102271.50;;;;106564;1297;66924;-42
2022/01/11 06:28:43;;;;;;;21.80;17.20;;;;;;102272.64;;;;106459;1297;62678;-41
2022/01/11 06:31:10;;;;;;;22.30;16.10;;;;;;102276.23;;;;106573;1296;62555;-25
2022/01/11 06:33:38;;;;;;;22.70;17.00;;;;;;102281.44;;;;106543;1297;62521;-24
2022/01/11 06:36:10;;;;;;;22.10;16.30;;;;;;102284.23;;;;106498;1296;62546;-24
2022/01/11 06:38:39;;;;;;;23.30;16.70;;;;;;102294.83;;;;106469;1297;66006;-28
2022/01/11 06:41:07;;;;;;;22.00;16.70;;;;;;102302.05;;;;106452;1299;62620;-41
2022/01/11 06:43:36;;;;;;;21.60;16.10;;;;;;102303.68;;;;106554;1297;62622;-41
2022/01/11 06:46:04;;;;;;;21.10;16.60;;;;;;102305.29;;;;106531;1297;62572;-41
2022/01/11 06:48:35;;;;;;;22.00;16.90;;;;;;102314.41;;;;106586;1297;62547;-41
2022/01/11 06:51:02;;;;;;;21.00;16.50;;;;;;102320.30;;;;106567;1297;67227;-24
2022/01/11 06:53:31;;;;;;;22.20;16.70;;;;;;102324.99;;;;106545;1297;62561;-24
2022/01/11 06:55:58;;;;;;;22.70;16.70;;;;;;102325.39;;;;106451;1297;62642;-24
2022/01/11 06:58:25;;;;;;;21.20;17.00;;;;;;102327.53;;;;106561;1296;63031;-25
2022/01/11 07:00:53;;;;;;;20.60;16.40;;;;;;102332.78;;;;106570;1297;62903;-24
2022/01/11 07:03:20;;;;;;;22.50;17.60;;;;;;102334.67;;;;106573;1296;65206;-41
2022/01/11 07:05:47;;;;;;;23.80;17.70;;;;;;102335.84;;;;106552;1296;62737;-41
2022/01/11 07:08:15;;;;;;;23.40;17.20;;;;;;102340.19;;;;106569;1297;62613;-24
2022/01/11 07:10:42;;;;;;;21.60;17.40;;;;;;102344.03;;;;106429;1297;62521;-24
2022/01/11 07:13:09;;;;;;;20.60;16.70;;;;;;102346.81;;;;106496;1298;62683;-24
2022/01/11 07:15:36;;;;;;;22.40;16.50;;;;;;102350.82;;;;106479;1300;64641;-25
2022/01/11 07:18:09;;;;;;;21.20;16.10;;;;;;102353.63;;;;106548;1297;62591;-24
2022/01/11 07:20:37;;;;;;;21.90;17.10;;;;;;102353.76;;;;106479;1299;62604;-30
2022/01/11 07:23:05;;;;;;;21.00;16.70;;;;;;102356.70;;;;106558;1297;62595;-25
2022/01/11 07:25:33;;;;;;;21.10;16.60;;;;;;102357.52;;;;106585;1296;62515;-24
2022/01/11 07:28:01;;;;;;;19.70;15.90;;;;;;102362.79;;;;106463;1297;64986;-24
2022/01/11 07:30:29;;;;;;;20.60;16.00;;;;;;102366.54;;;;106446;1299;62663;-26
2022/01/11 07:32:56;;;;;;;19.20;15.80;;;;;;102364.49;;;;106496;1299;62474;-41
2022/01/11 07:35:24;;;;;;;19.80;16.30;;;;;;102372.23;;;;106466;1297;63033;-43
2022/01/11 07:37:52;;;;;;;19.90;15.80;;;;;;102376.06;;;;106527;1297;62559;-43
2022/01/11 07:40:20;;;;;;;19.60;15.70;;;;;;102379.75;;;;106481;1297;65701;-42
2022/01/11 07:42:49;;;;;;;18.30;14.90;;;;;;102375.54;;;;106435;1299;62586;-24
2022/01/11 07:45:17;;;;;;;22.10;15.60;;;;;;102371.15;;;;106547;1297;62573;-25
2022/01/11 07:47:44;;;;;;;20.50;16.00;;;;;;102368.33;;;;106559;1297;62582;-42
2022/01/11 07:50:13;;;;;;;21.10;16.30;;;;;;102363.30;;;;106605;1297;62529;-42
2022/01/11 07:52:40;;;;;;;18.70;15.10;;;;;;102359.87;;;;106482;1297;68312;-25
2022/01/11 07:55:08;;;;;;;18.40;15.70;;;;;;102360.42;;;;106553;1297;62646;-25
2022/01/11 07:57:35;;;;;;;18.50;15.20;;;;;;102364.21;;;;106422;1297;62608;-25
2022/01/11 08:00:07;;;;;;;19.00;15.40;;;;;;102366.55;;;;106452;1297;62785;-25
2022/01/11 08:02:34;;;;;;;20.20;15.40;;;;;;102371.95;;;;106598;1296;62594;-45
2022/01/11 08:05:03;;;;;;;20.50;15.30;;;;;;102378.61;;;;106570;1297;65869;-43
2022/01/11 08:07:30;;;;;;;17.90;14.90;;;;;;102381.39;;;;106572;1297;62695;-25
2022/01/11 08:09:58;;;;;;;20.80;15.60;;;;;;102387.10;;;;106541;1297;62586;-25
2022/01/11 08:12:25;;;;;;;18.90;14.80;;;;;;102383.89;;;;106573;1297;62704;-25
2022/01/11 08:14:52;;;;;;;19.00;15.50;;;;;;102384.99;;;;106480;1297;62544;-25
2022/01/11 08:17:20;;;;;;;19.40;14.80;;;;;;102381.80;;;;106569;1297;66010;-26
2022/01/11 08:19:47;;;;;;;18.30;14.70;;;;;;102380.64;;;;106532;1297;62604;-25
2022/01/11 08:22:14;;;;;;;16.50;13.30;;;;;;102384.83;;;;106564;1297;62578;-35
2022/01/11 08:24:44;;;;;;;17.20;14.20;;;;;;102386.05;;;;106558;1297;62543;-39
2022/01/11 08:27:13;;;;;;;16.60;14.10;;;;;;102385.66;;;;106569;1297;62692;-25
2022/01/11 08:29:42;;;;;;;18.60;14.00;;;;;;102389.99;;;;106540;1297;66219;-36
2022/01/11 08:32:09;;;;;;;16.40;13.60;;;;;;102393.51;;;;106437;1296;62557;-42
2022/01/11 08:34:36;;;;;;;20.10;13.80;;;;;;102389.52;;;;106461;1297;62569;-42
2022/01/11 08:37:04;;;;;;;16.20;13.80;;;;;;102392.44;;;;106545;1297;62595;-25
2022/01/11 08:39:32;;;;;;;18.00;13.60;;;;;;102396.21;;;;106566;1297;62590;-25
2022/01/11 08:41:59;;;;;;;18.40;14.30;;;;;;102398.04;;;;106471;1300;66003;-25
2022/01/11 08:44:27;;;;;;;19.10;14.00;;;;;;102395.40;;;;106548;1297;62638;-25
2022/01/11 08:46:55;;;;;;;18.10;13.80;;;;;;102395.40;;;;106482;1297;62530;-25
2022/01/11 08:49:22;;;;;;;19.40;14.30;;;;;;102394.77;;;;106454;1297;62611;-25
2022/01/11 08:51:49;;;;;;;18.70;13.70;;;;;;102393.75;;;;106572;1297;62594;-42
2022/01/11 08:54:18;;;;;;;20.00;14.20;;;;;;102397.06;;;;106554;1297;66069;-43
2022/01/11 08:56:46;;;;;;;18.90;13.10;;;;;;102392.33;;;;106466;1298;63187;-44
2022/01/11 08:59:13;;;;;;;17.80;13.70;;;;;;102391.65;;;;106575;1297;62577;-42
2022/01/11 09:01:40;;;;;;;18.40;13.90;;;;;;102397.32;;;;106254;1297;266406;-25
2022/01/11 09:04:07;;;;;;;21.90;14.00;;;;;;102399.84;;;;106567;1297;62588;-24
2022/01/11 09:06:34;;;;;;;22.30;18.30;;;;;;102397.27;;;;106577;1297;64740;-42
2022/01/11 09:09:03;;;;;;;28.50;23.40;;;;;;102400.60;;;;106565;1296;62574;-42
2022/01/11 09:11:30;;;;;;;26.70;23.00;;;;;;102400.30;;;;106594;1297;62516;-25
2022/01/11 09:13:57;;;;;;;27.60;24.60;;;;;;102397.38;;;;106546;1297;62675;-25
2022/01/11 09:16:25;;;;;;;29.80;25.30;;;;;;102396.18;;;;106456;1299;62560;-42
2022/01/11 09:18:52;;;;;;;30.30;25.10;;;;;;102397.23;;;;106570;1297;65950;-42
2022/01/11 09:21:20;;;;;;;28.80;24.40;;;;;;102390.33;;;;106563;1297;62658;-25
2022/01/11 09:23:49;;;;;;;29.10;24.30;;;;;;102388.80;;;;106553;1297;62501;-25
2022/01/11 09:26:16;;;;;;;28.00;23.40;;;;;;102388.69;;;;106567;1297;62796;-25
2022/01/11 09:28:44;;;;;;;28.80;24.40;;;;;;102390.23;;;;106364;1299;62743;-36
2022/01/11 09:31:11;;;;;;;28.80;24.40;;;;;;102389.00;;;;106470;1297;65801;-44
2022/01/11 09:33:38;;;;;;;26.60;23.80;;;;;;102385.27;;;;106485;1297;62636;-42
2022/01/11 09:36:06;;;;;;;26.80;23.10;;;;;;102382.97;;;;106460;1297;62547;-28
2022/01/11 09:38:34;;;;;;;26.70;23.10;;;;;;102382.23;;;;106485;1297;62585;-29
2022/01/11 09:41:01;;;;;;;26.60;22.30;;;;;;102374.52;;;;106578;1297;62537;-31
2022/01/11 09:43:29;;;;;;;26.40;22.30;;;;;;102370.37;;;;106591;1296;65151;-22
2022/01/11 09:45:57;;;;;;;26.20;22.10;;;;;;102369.92;;;;106579;1297;62744;-33
2022/01/11 09:48:28;;;;;;;24.90;21.20;;;;;;102370.52;;;;106455;1300;62575;-34
2022/01/11 09:50:56;;;;;;;23.50;20.30;;;;;;102369.91;;;;106439;1300;62555;-39
2022/01/11 09:53:23;;;;;;;22.30;19.90;;;;;;102368.30;;;;106475;1297;62584;-40
2022/01/11 09:55:51;;;;;;;23.90;20.30;;;;;;102370.84;;;;106549;1297;67849;-36
2022/01/11 09:58:19;;;;;;;23.40;19.60;;;;;;102369.77;;;;106425;1297;62587;-45
2022/01/11 10:00:46;;;;;;;23.50;19.10;;;;;;102376.28;;;;106567;1297;62578;-34
2022/01/11 10:03:15;;;;;;;22.60;18.40;;;;;;102377.54;;;;106456;1298;62533;-37
2022/01/11 10:05:42;;;;;;;22.00;18.10;;;;;;102379.33;;;;106571;1297;62573;-44
2022/01/11 10:08:24;;;;;;;21.30;18.10;;;;;;102381.14;;;;106571;1296;65283;-33
2022/01/11 10:10:52;;;;;;;22.10;18.40;;;;;;102386.14;;;;106440;1297;62713;-37
2022/01/11 10:13:39;;;;;;;21.10;17.70;;;;;;102384.92;;;;106564;1296;62553;-35
2022/01/11 10:16:28;;;;;;;21.50;17.50;;;;;;102385.21;;;;106472;1297;62618;-30
2022/01/11 10:18:56;;;;;;;22.80;17.80;;;;;;102383.17;;;;106501;1298;62613;-28
2022/01/11 10:21:33;;;;;;;20.80;17.70;;;;;;102381.25;;;;106575;1297;66188;-26
2022/01/11 10:24:21;;;;;;;23.50;18.80;;;;;;102381.80;;;;106547;1297;62657;-26
2022/01/11 10:26:48;;;;;;;22.20;17.80;;;;;;102387.57;;;;106562;1297;62559;-25
2022/01/11 10:29:40;;;;;;;21.40;17.60;;;;;;102391.33;;;;106546;1297;62641;-28
2022/01/11 10:32:35;;;;;;;23.10;17.90;;;;;;102389.92;;;;106574;1297;62566;-41
2022/01/11 10:35:18;;;;;;;21.80;17.70;;;;;;102394.73;;;;106491;1299;66185;-25
2022/01/11 10:37:49;;;;;;;20.70;17.10;;;;;;102395.16;;;;106523;1297;62725;-30
2022/01/11 10:40:22;;;;;;;20.60;17.90;;;;;;102393.23;;;;106342;1300;62615;-25
2022/01/11 10:43:04;;;;;;;20.80;17.60;;;;;;102389.73;;;;106462;1297;62587;-32
2022/01/11 10:45:35;;;;;;;20.90;16.80;;;;;;102388.41;;;;106600;1297;62657;-27
2022/01/11 10:48:09;;;;;;;22.50;18.90;;;;;;102386.98;;;;106474;1297;67456;-42
2022/01/11 10:50:43;;;;;;;22.80;18.20;;;;;;102392.45;;;;106545;1295;62772;-26
2022/01/11 10:53:32;;;;;;;22.30;17.40;;;;;;102391.48;;;;106445;1297;62590;-44
2022/01/11 10:56:02;;;;;;;21.10;17.20;;;;;;102394.46;;;;106456;1297;62690;-26
2022/01/11 10:58:33;;;;;;;19.50;16.80;;;;;;102395.52;;;;106485;1297;62992;-26
2022/01/11 11:01:00;;;;;;;20.80;16.20;;;;;;102397.73;;;;106575;1297;66547;-35
2022/01/11 11:03:30;;;;;;;22.50;18.00;;;;;;102398.58;;;;106561;1297;62727;-26
2022/01/11 11:06:07;;;;;;;20.10;16.30;;;;;;102397.84;;;;106396;1297;62598;-41
2022/01/11 11:08:39;;;;;;;22.00;16.50;;;;;;102397.77;;;;106544;1297;62668;-45
2022/01/11 11:11:16;;;;;;;23.60;19.10;;;;;;102396.90;;;;106495;1298;62588;-41
2022/01/11 11:13:46;;;;;;;22.40;17.30;;;;;;102398.95;;;;106512;1298;65953;-44
2022/01/11 11:16:27;;;;;;;19.90;16.00;;;;;;102391.40;;;;106575;1297;62613;-39
2022/01/11 11:18:57;;;;;;;18.10;15.40;;;;;;102394.11;;;;106412;1297;62625;-44
2022/01/11 11:21:37;;;;;;;18.80;15.30;;;;;;102395.33;;;;106449;1297;62714;-43
2022/01/11 11:24:08;;;;;;;18.60;15.60;;;;;;102390.93;;;;106570;1296;62627;-42
2022/01/11 11:26:44;;;;;;;19.70;16.10;;;;;;102391.38;;;;106567;1297;67397;-35
2022/01/11 11:29:12;;;;;;;19.20;15.60;;;;;;102395.95;;;;106456;1296;62729;-24
2022/01/11 11:31:40;;;;;;;17.60;15.10;;;;;;102396.71;;;;106570;1297;62568;-44
2022/01/11 11:34:10;;;;;;;17.40;14.10;;;;;;102395.66;;;;106528;1297;62657;-42
2022/01/11 11:36:40;;;;;;;17.30;14.70;;;;;;102402.27;;;;106590;1296;62569;-28
2022/01/11 11:39:21;;;;;;;17.60;15.30;;;;;;102405.63;;;;106425;1297;66306;-27
2022/01/11 11:41:55;;;;;;;17.50;14.80;;;;;;102397.56;;;;106458;1297;62567;-29
2022/01/11 11:44:28;;;;;;;19.30;16.10;;;;;;102406.05;;;;106497;1297;62607;-29
2022/01/11 11:47:00;;;;;;;19.30;14.80;;;;;;102407.44;;;;106546;1296;62628;-28
2022/01/11 11:49:55;;;;;;;18.00;14.80;;;;;;102408.13;;;;106590;1297;63282;-29
2022/01/11 11:52:50;;;;;;;19.00;15.90;;;;;;102405.39;;;;106477;1297;67514;-47
2022/01/11 11:55:30;;;;;;;18.10;15.10;;;;;;102406.88;;;;106564;1297;62684;-47
2022/01/11 11:58:01;;;;;;;18.00;14.30;;;;;;102402.36;;;;106561;1297;62670;-47
2022/01/11 12:00:41;;;;;;;18.90;15.30;;;;;;102404.85;;;;106561;1297;62739;-46
2022/01/11 12:03:22;;;;;;;17.60;13.70;;;;;;102404.58;;;;106603;1297;62664;-30
2022/01/11 12:05:51;;;;;;;19.00;15.00;;;;;;102405.02;;;;106555;1297;67196;-27
2022/01/11 12:08:38;;;;;;;17.80;14.20;;;;;;102399.21;;;;106434;1298;62667;-38
2022/01/11 12:11:11;;;;;;;21.00;15.70;;;;;;102401.74;;;;106564;1297;62695;-36
2022/01/11 12:13:55;;;;;;;20.60;15.10;;;;;;102401.88;;;;106491;1298;62648;-39
2022/01/11 12:16:25;;;;;;;18.40;14.70;;;;;;102400.27;;;;106553;1297;62566;-34
2022/01/11 12:18:55;;;;;;;19.60;14.80;;;;;;102398.66;;;;106570;1297;64677;-43
2022/01/11 12:21:25;;;;;;;18.80;15.40;;;;;;102401.82;;;;106590;1297;62686;-27
2022/01/11 12:23:58;;;;;;;19.30;15.00;;;;;;102399.85;;;;106491;1297;63086;-44
2022/01/11 12:26:29;;;;;;;;;;;;;;102400.80;;;;106492;1297;62635;-27
2022/01/11 12:29:05;;;;;;;18.30;14.40;;;;;;102404.48;;;;106523;1299;62653;-27
2022/01/11 12:31:54;;;;;;;16.90;14.00;;;;;;102407.89;;;;106550;1297;66042;-44
2022/01/11 12:34:46;;;;;;;18.20;14.30;;;;;;102403.52;;;;106481;1298;62649;-36
2022/01/11 12:37:25;;;;;;;17.50;13.40;;;;;;102409.81;;;;106559;1296;63166;-25
2022/01/11 12:40:16;;;;;;;17.10;13.50;;;;;;102408.92;;;;106537;1297;62566;-27
2022/01/11 12:43:02;;;;;;;17.10;14.60;;;;;;102405.17;;;;106570;1297;62543;-42
2022/01/11 12:46:04;;;;;;;19.20;14.60;;;;;;102403.62;;;;106481;1299;66131;-36